createdAt,value
2022-12-28T00:00:35.262Z,28.40
2022-12-28T00:03:59.586Z,29.60
2022-12-28T00:07:01.256Z,28.80
2022-12-28T00:10:03.184Z,27.10
2022-12-28T00:13:04.725Z,32.90
2022-12-28T00:16:14.208Z,34.10
2022-12-28T00:19:16.687Z,28.80
2022-12-28T00:22:18.353Z,29.00
2022-12-28T00:25:19.899Z,28.50
2022-12-28T00:28:21.805Z,29.00
2022-12-28T00:31:23.663Z,30.30
2022-12-28T00:34:26.458Z,29.90
2022-12-28T00:37:28.540Z,29.50
2022-12-28T00:43:32.089Z,27.00
2022-12-28T00:46:33.791Z,27.70
2022-12-28T00:52:36.959Z,29.40
2022-12-28T00:55:39.345Z,27.40
2022-12-28T00:58:41.702Z,24.90
2022-12-28T01:01:43.546Z,27.00
2022-12-28T01:04:45.330Z,26.40
2022-12-28T01:10:48.568Z,28.40
2022-12-28T01:13:51.555Z,25.60
2022-12-28T01:16:53.232Z,27.40
2022-12-28T01:19:55.772Z,27.90
2022-12-28T01:22:57.418Z,29.60
2022-12-28T01:26:02.374Z,25.70
2022-12-28T01:29:04.164Z,31.80
2022-12-28T01:32:06.595Z,27.90
2022-12-28T01:38:10.122Z,27.00
2022-12-28T01:41:14.602Z,28.70
2022-12-28T01:44:16.420Z,27.40
2022-12-28T01:50:30.620Z,30.60
2022-12-28T01:53:32.328Z,31.10
2022-12-28T01:56:33.926Z,29.60
2022-12-28T01:59:39.566Z,31.40
2022-12-28T02:03:02.565Z,30.20
2022-12-28T02:06:08.731Z,30.20
2022-12-28T02:09:14.559Z,33.00
2022-12-28T02:12:17.338Z,30.20
2022-12-28T02:15:23.062Z,36.40
2022-12-28T02:18:25.133Z,27.30
2022-12-28T02:21:44.193Z,31.40
2022-12-28T02:24:45.744Z,28.90
2022-12-28T02:28:18.330Z,34.20
2022-12-28T02:32:00.641Z,31.80
2022-12-28T02:35:34.062Z,31.80
2022-12-28T02:39:05.929Z,31.60
2022-12-28T02:42:07.994Z,27.90
2022-12-28T02:45:38.292Z,27.90
2022-12-28T02:48:44.856Z,31.90
2022-12-28T02:52:02.717Z,29.80
2022-12-28T02:55:07.088Z,28.30
2022-12-28T02:58:31.028Z,27.70
2022-12-28T03:01:53.446Z,28.60
2022-12-28T03:05:18.885Z,29.40
2022-12-28T03:08:49.974Z,26.10
2022-12-28T03:11:56.700Z,28.50
2022-12-28T03:15:12.026Z,26.10
2022-12-28T03:18:16.601Z,27.70
2022-12-28T03:21:18.607Z,27.70
2022-12-28T03:24:20.218Z,24.70
2022-12-28T03:27:22.309Z,24.60
2022-12-28T03:30:24.357Z,27.60
2022-12-28T03:33:25.957Z,24.20
2022-12-28T03:36:31.004Z,25.80
2022-12-28T03:39:52.778Z,25.80
2022-12-28T03:42:55.921Z,25.60
2022-12-28T03:46:21.727Z,26.10
2022-12-28T03:49:23.936Z,24.70
2022-12-28T03:52:26.076Z,24.30
2022-12-28T03:55:27.869Z,28.00
2022-12-28T03:58:29.463Z,24.30
2022-12-28T04:01:31.265Z,24.00
2022-12-28T04:04:32.877Z,24.90
2022-12-28T04:07:34.484Z,26.00
2022-12-28T04:10:36.042Z,30.50
2022-12-28T04:13:37.910Z,24.50
2022-12-28T04:19:40.953Z,23.50
2022-12-28T04:22:42.560Z,24.50
2022-12-28T04:25:44.324Z,25.90
2022-12-28T04:28:46.325Z,27.80
2022-12-28T04:31:48.105Z,21.90
2022-12-28T04:34:50.990Z,29.80
2022-12-28T04:37:52.575Z,23.70
2022-12-28T04:40:54.216Z,27.30
2022-12-28T04:46:57.590Z,25.80
2022-12-28T04:53:00.866Z,25.10
2022-12-28T04:56:06.965Z,25.80
2022-12-28T04:59:08.653Z,26.00
2022-12-28T05:02:10.420Z,25.90
2022-12-28T05:05:12.022Z,22.40
2022-12-28T05:08:13.703Z,21.10
2022-12-28T05:11:18.400Z,23.10
2022-12-28T05:14:19.939Z,25.60
2022-12-28T05:17:21.617Z,24.90
2022-12-28T05:20:23.203Z,23.70
2022-12-28T05:23:24.776Z,22.60
2022-12-28T05:26:28.808Z,27.60
2022-12-28T05:29:30.462Z,25.30
2022-12-28T05:35:35.320Z,28.40
2022-12-28T05:38:37.263Z,27.70
2022-12-28T05:41:38.956Z,25.90
2022-12-28T05:44:40.676Z,24.30
2022-12-28T05:47:42.365Z,23.10
2022-12-28T05:50:43.994Z,22.40
2022-12-28T05:53:45.904Z,27.50
2022-12-28T05:59:51.509Z,31.30
2022-12-28T06:02:55.029Z,40.30
2022-12-28T06:05:56.767Z,32.00
2022-12-28T06:08:58.711Z,34.40
2022-12-28T06:15:01.965Z,27.60
2022-12-28T06:21:14.062Z,26.90
2022-12-28T06:24:15.661Z,24.10
2022-12-28T06:27:17.203Z,28.70
2022-12-28T06:30:18.938Z,27.60
2022-12-28T06:36:24.823Z,33.40
2022-12-28T06:39:26.467Z,39.60
2022-12-28T06:42:28.048Z,31.80
2022-12-28T06:45:29.733Z,32.20
2022-12-28T06:48:32.865Z,44.50
2022-12-28T06:51:36.486Z,42.50
2022-12-28T06:54:38.302Z,40.50
2022-12-28T06:57:39.865Z,41.10
2022-12-28T07:00:41.418Z,31.40
2022-12-28T07:03:44.356Z,38.60
2022-12-28T07:06:46.048Z,35.10
2022-12-28T07:09:47.573Z,36.00
2022-12-28T07:12:49.341Z,25.40
2022-12-28T07:18:52.853Z,23.50
2022-12-28T07:21:54.494Z,20.40
2022-12-28T07:24:56.024Z,22.60
2022-12-28T07:27:57.612Z,19.70
2022-12-28T07:30:59.348Z,18.50
2022-12-28T07:37:02.780Z,22.10
2022-12-28T07:40:04.814Z,18.70
2022-12-28T07:43:06.486Z,22.30
2022-12-28T07:46:13.527Z,20.00
2022-12-28T07:49:15.121Z,20.20
2022-12-28T07:52:16.696Z,21.60
2022-12-28T07:55:18.345Z,23.90
2022-12-28T08:01:23.808Z,23.00
2022-12-28T08:04:25.857Z,21.30
2022-12-28T08:07:27.490Z,25.00
2022-12-28T08:10:29.151Z,25.80
2022-12-28T08:16:40.872Z,24.00
2022-12-28T08:19:42.591Z,22.80
2022-12-28T08:25:46.007Z,23.80
2022-12-28T08:31:50.508Z,20.10
2022-12-28T08:34:52.305Z,20.00
2022-12-28T08:37:56.999Z,20.70
2022-12-28T08:41:00.583Z,21.60
2022-12-28T08:44:02.476Z,19.90
2022-12-28T08:47:04.102Z,26.40
2022-12-28T08:53:07.630Z,23.10
2022-12-28T08:56:12.180Z,18.60
2022-12-28T08:59:17.867Z,21.80
2022-12-28T09:02:19.546Z,22.70
2022-12-28T09:05:21.216Z,20.70
2022-12-28T09:11:24.750Z,23.70
2022-12-28T09:14:26.403Z,18.50
2022-12-28T09:17:28.127Z,20.00
2022-12-28T09:20:29.777Z,20.60
2022-12-28T09:23:31.476Z,18.70
2022-12-28T09:26:36.872Z,19.00
2022-12-28T09:29:38.422Z,21.00
2022-12-28T09:32:40.064Z,22.50
2022-12-28T09:38:43.724Z,20.50
2022-12-28T09:41:52.845Z,20.70
2022-12-28T09:45:03.700Z,24.50
2022-12-28T09:48:12.655Z,22.90
2022-12-28T09:51:14.797Z,22.00
2022-12-28T09:54:16.488Z,22.50
2022-12-28T09:57:19.130Z,22.40
2022-12-28T10:00:32.267Z,22.50
2022-12-28T10:03:41.614Z,21.60
2022-12-28T10:06:43.467Z,27.10
2022-12-28T10:09:45.761Z,21.90
2022-12-28T10:12:48.161Z,20.40
2022-12-28T10:15:50.764Z,20.20
2022-12-28T10:18:52.779Z,24.10
2022-12-28T10:22:03.125Z,19.60
2022-12-28T10:25:17.061Z,17.90
2022-12-28T10:28:21.407Z,20.60
2022-12-28T10:31:36.470Z,17.30
2022-12-28T10:34:53.371Z,18.70
2022-12-28T10:38:27.887Z,20.50
2022-12-28T10:41:36.150Z,19.80
2022-12-28T10:44:40.125Z,20.10
2022-12-28T10:47:44.805Z,20.20
2022-12-28T10:50:54.102Z,18.90
2022-12-28T10:53:57.734Z,16.80
2022-12-28T10:56:59.424Z,19.40
2022-12-28T11:03:37.520Z,15.60
2022-12-28T11:06:59.344Z,19.80
2022-12-28T11:13:22.157Z,20.70
2022-12-28T11:16:24.128Z,21.30
2022-12-28T11:19:26.101Z,19.70
2022-12-28T11:22:29.393Z,17.00
2022-12-28T11:25:33.373Z,16.10
2022-12-28T11:28:34.951Z,19.90
2022-12-28T11:31:43.723Z,20.80
2022-12-28T11:34:45.714Z,18.70
2022-12-28T11:37:58.182Z,19.50
2022-12-28T11:40:59.814Z,18.70
2022-12-28T11:47:16.168Z,15.10
2022-12-28T11:50:33.483Z,16.80
2022-12-28T11:53:35.046Z,17.90
2022-12-28T11:56:36.636Z,14.80
2022-12-28T11:59:38.176Z,18.70
2022-12-28T12:02:40.178Z,17.40
2022-12-28T12:05:41.807Z,18.60
2022-12-28T12:11:46.099Z,22.60
2022-12-28T12:14:53.070Z,20.70
2022-12-28T12:18:06.047Z,19.30
2022-12-28T12:21:15.587Z,20.10
2022-12-28T12:24:17.754Z,18.20
2022-12-28T12:27:37.208Z,19.00
2022-12-28T12:30:42.391Z,17.90
2022-12-28T12:33:46.827Z,19.00
2022-12-28T12:36:59.595Z,20.00
2022-12-28T12:40:40.036Z,16.20
2022-12-28T12:44:04.747Z,17.30
2022-12-28T12:47:29.856Z,19.20
2022-12-28T12:51:03.769Z,19.40
2022-12-28T12:54:33.201Z,17.50
2022-12-28T12:57:40.209Z,13.50
2022-12-28T13:00:49.087Z,16.70
2022-12-28T13:03:53.576Z,18.90
2022-12-28T13:07:03.694Z,17.00
2022-12-28T13:10:05.865Z,21.20
2022-12-28T13:13:07.552Z,18.00
2022-12-28T13:19:18.260Z,19.60
2022-12-28T13:22:33.454Z,19.70
2022-12-28T13:25:35.253Z,19.20
2022-12-28T13:28:37.541Z,20.90
2022-12-28T13:31:40.268Z,17.40
2022-12-28T13:34:49.345Z,15.70
2022-12-28T13:38:12.831Z,19.00
2022-12-28T13:41:34.289Z,14.50
2022-12-28T13:44:40.021Z,14.60
2022-12-28T13:47:45.012Z,15.90
2022-12-28T13:50:46.785Z,16.00
2022-12-28T13:53:53.220Z,17.50
2022-12-28T13:57:14.377Z,14.60
2022-12-28T14:00:18.882Z,16.60
2022-12-28T14:03:20.662Z,17.10
2022-12-28T14:06:22.250Z,19.20
2022-12-28T14:12:25.811Z,15.00
2022-12-28T14:15:27.940Z,17.10
2022-12-28T14:18:31.212Z,15.90
2022-12-28T14:21:35.276Z,14.70
2022-12-28T14:24:37.069Z,16.10
2022-12-28T14:28:00.994Z,16.60
2022-12-28T14:31:05.138Z,18.00
2022-12-28T14:34:07.384Z,18.90
2022-12-28T14:37:30.290Z,25.40
2022-12-28T14:40:35.212Z,20.20
2022-12-28T14:43:37.042Z,18.30
2022-12-28T14:46:40.018Z,22.50
2022-12-28T14:49:42.018Z,19.10
2022-12-28T14:52:46.013Z,18.30
2022-12-28T14:55:53.830Z,16.40
2022-12-28T14:58:58.568Z,17.90
2022-12-28T15:02:00.449Z,20.20
2022-12-28T15:05:02.949Z,19.10
2022-12-28T15:08:05.343Z,17.30
2022-12-28T15:11:06.992Z,20.40
2022-12-28T15:17:10.681Z,20.30
2022-12-28T15:20:12.403Z,18.90
2022-12-28T15:23:14.165Z,21.60
2022-12-28T15:29:32.159Z,19.70
2022-12-28T15:32:38.905Z,20.10
2022-12-28T15:38:42.466Z,20.20
2022-12-28T15:41:44.153Z,20.80
2022-12-28T15:47:47.251Z,22.80
2022-12-28T15:50:49.098Z,21.20
2022-12-28T15:56:53.697Z,23.20
2022-12-28T15:59:55.709Z,22.10
2022-12-28T16:02:57.528Z,24.80
2022-12-28T16:05:59.407Z,23.50
2022-12-28T16:09:01.675Z,26.90
2022-12-28T16:12:03.988Z,27.50
2022-12-28T16:15:06.862Z,28.60
2022-12-28T16:18:08.510Z,27.40
2022-12-28T16:21:11.192Z,29.30
2022-12-28T16:24:12.914Z,33.50
2022-12-28T16:27:14.908Z,33.10
2022-12-28T16:30:16.586Z,35.00
2022-12-28T16:36:19.818Z,39.50
2022-12-28T16:42:23.079Z,38.50
2022-12-28T16:45:24.744Z,42.60
2022-12-28T16:48:26.333Z,49.80
2022-12-28T16:51:29.228Z,37.70
2022-12-28T16:54:30.916Z,30.30
2022-12-28T17:00:34.500Z,27.10
2022-12-28T17:06:40.174Z,27.10
2022-12-28T17:09:45.383Z,30.20
2022-12-28T17:12:51.578Z,30.40
2022-12-28T17:15:53.491Z,26.80
2022-12-28T17:18:55.063Z,31.20
2022-12-28T17:24:58.403Z,29.00
2022-12-28T17:31:16.661Z,30.50
2022-12-28T17:34:19.536Z,29.40
2022-12-28T17:40:22.742Z,33.10
2022-12-28T17:43:24.364Z,25.90
2022-12-28T17:46:28.843Z,27.80
2022-12-28T17:49:31.606Z,26.00
2022-12-28T17:55:35.623Z,33.00
2022-12-28T17:58:37.248Z,32.00
2022-12-28T18:01:39.164Z,31.10
2022-12-28T18:04:40.907Z,25.90
2022-12-28T18:10:45.495Z,26.20
2022-12-28T18:13:47.246Z,25.60
2022-12-28T18:19:50.642Z,22.60
2022-12-28T18:22:52.334Z,26.30
2022-12-28T18:29:10.046Z,23.80
2022-12-28T18:32:11.625Z,27.40
2022-12-28T18:35:13.343Z,29.50
2022-12-28T18:38:14.904Z,27.30
2022-12-28T18:41:18.479Z,24.90
2022-12-28T18:44:20.235Z,24.20
2022-12-28T18:47:21.941Z,21.80
2022-12-28T18:50:23.585Z,23.50
2022-12-28T18:53:26.810Z,31.80
2022-12-28T18:56:28.450Z,23.30
2022-12-28T18:59:30.051Z,23.80
2022-12-28T19:02:32.061Z,25.70
2022-12-28T19:05:34.003Z,24.50
2022-12-28T19:11:39.895Z,25.80
2022-12-28T19:14:41.469Z,25.60
2022-12-28T19:17:43.058Z,25.80
2022-12-28T19:20:44.891Z,27.00
2022-12-28T19:23:50.699Z,25.40
2022-12-28T19:26:52.320Z,25.10
2022-12-28T19:29:54.254Z,26.80
2022-12-28T19:32:55.933Z,24.70
2022-12-28T19:35:57.434Z,26.90
2022-12-28T19:38:59.073Z,26.20
2022-12-28T19:42:00.603Z,25.90
2022-12-28T19:45:07.933Z,32.10
2022-12-28T19:48:11.484Z,36.00
2022-12-28T19:51:13.889Z,30.70
2022-12-28T19:54:15.628Z,32.00
2022-12-28T20:00:18.964Z,34.80
2022-12-28T20:03:21.283Z,36.30
2022-12-28T20:06:24.957Z,29.40
2022-12-28T20:09:26.674Z,28.90
2022-12-28T20:12:28.348Z,28.00
2022-12-28T20:15:29.991Z,26.30
2022-12-28T20:18:31.711Z,25.60
2022-12-28T20:24:34.972Z,25.00
2022-12-28T20:27:36.585Z,26.50
2022-12-28T20:33:40.604Z,26.00
2022-12-28T20:36:42.445Z,25.40
2022-12-28T20:42:45.591Z,27.60
2022-12-28T20:45:53.922Z,23.70
2022-12-28T20:48:56.230Z,27.10
2022-12-28T20:54:59.294Z,25.60
2022-12-28T20:58:00.918Z,24.30
2022-12-28T21:01:08.829Z,26.30
2022-12-28T21:04:10.691Z,24.60
2022-12-28T21:10:13.959Z,24.90
2022-12-28T21:13:15.634Z,25.00
2022-12-28T21:16:18.159Z,24.20
2022-12-28T21:19:19.868Z,23.40
2022-12-28T21:25:23.142Z,20.40
2022-12-28T21:31:26.509Z,21.50
2022-12-28T21:34:29.221Z,18.40
2022-12-28T21:37:30.934Z,21.80
2022-12-28T21:40:32.460Z,23.20
2022-12-28T21:43:34.121Z,22.70
2022-12-28T21:46:35.896Z,23.60
2022-12-28T21:52:39.048Z,22.30
2022-12-28T21:55:40.692Z,20.10
2022-12-28T21:58:45.338Z,22.30
2022-12-28T22:01:47.416Z,21.60
2022-12-28T22:04:49.290Z,21.90
2022-12-28T22:10:56.225Z,18.40
2022-12-28T22:13:58.320Z,19.60
2022-12-28T22:17:00.247Z,14.50
2022-12-28T22:20:02.138Z,21.20
2022-12-28T22:26:05.782Z,16.70
2022-12-28T22:29:07.431Z,19.40
2022-12-28T22:35:11.154Z,21.30
2022-12-28T22:38:12.796Z,21.10
2022-12-28T22:44:15.841Z,23.80
2022-12-28T22:47:17.516Z,17.90
2022-12-28T22:50:19.271Z,18.00
2022-12-28T22:56:22.530Z,18.10
2022-12-28T22:59:24.329Z,18.50
2022-12-28T23:05:27.951Z,21.90
2022-12-28T23:11:31.421Z,19.90
2022-12-28T23:14:33.018Z,22.70
2022-12-28T23:17:34.774Z,27.10
2022-12-28T23:20:38.991Z,24.90
2022-12-28T23:23:40.776Z,26.40
2022-12-28T23:26:42.355Z,31.20
2022-12-28T23:29:45.152Z,28.70
2022-12-28T23:32:47.868Z,24.00
2022-12-28T23:35:49.482Z,24.10
2022-12-28T23:38:51.095Z,27.60
2022-12-28T23:41:52.910Z,23.60
2022-12-28T23:47:55.884Z,21.40
2022-12-28T23:50:57.476Z,18.20
2022-12-28T23:53:59.235Z,18.60
2022-12-28T23:57:00.890Z,23.00
